Time;durP1;ratioP1;P1;durP2;ratioP2;P2;SDS_P1;SDS_P2;PMS_P1;PMS_P2;Temp;Humidity;BMP_temperature;BMP_pressure;BME280_temperature;BME280_humidity;BME280_pressure;Samples;Min_cycle;Max_cycle;Signal;HPM_P1;HPM_P2
2021/11/14 00:01:08;;;;;;;;;10.67;9.00;;;;;;;;5108390;27;45211;-86
2021/11/14 00:03:34;;;;;;;;;9.75;9.50;;;;;;;;5110038;27;45780;-86
2021/11/14 00:06:01;;;;;;;;;11.25;10.50;;;;;;;;5107800;27;45253;-85
2021/11/14 00:08:27;;;;;;;;;7.50;7.50;;;;;;;;5106331;27;45116;-85
2021/11/14 00:10:54;;;;;;;;;12.50;12.00;;;;;;;;5110072;27;45440;-85
2021/11/14 00:13:19;;;;;;;;;11.75;11.00;;;;;;;;5108807;27;45990;-86
2021/11/14 00:15:45;;;;;;;;;13.00;11.75;;;;;;;;5110166;27;45068;-85
2021/11/14 00:18:10;;;;;;;;;13.00;11.67;;;;;;;;5107914;27;45092;-85
2021/11/14 00:20:36;;;;;;;;;11.75;10.00;;;;;;;;5109788;27;45250;-85
2021/11/14 00:23:01;;;;;;;;;11.25;10.25;;;;;;;;5110078;27;46046;-84
2021/11/14 00:25:26;;;;;;;;;12.33;11.33;;;;;;;;5108584;27;45245;-86
2021/11/14 00:27:52;;;;;;;;;9.67;8.33;;;;;;;;5110325;27;45172;-84
2021/11/14 00:30:18;;;;;;;;;10.50;9.25;;;;;;;;5110345;27;44921;-85
2021/11/14 00:32:44;;;;;;;;;11.75;10.75;;;;;;;;5107786;27;45772;-85
2021/11/14 00:35:10;;;;;;;;;10.00;9.25;;;;;;;;5101651;27;45297;-85
2021/11/14 00:37:36;;;;;;;;;10.00;8.00;;;;;;;;5108829;27;45416;-86
2021/11/14 00:40:20;;;;;;;;;10.50;10.25;;;;;;;;5105374;27;45203;-85
2021/11/14 00:42:45;;;;;;;;;8.25;8.00;;;;;;;;5090970;27;45464;-85
2021/11/14 00:45:11;;;;;;;;;13.33;11.00;;;;;;;;5106543;27;44984;-85
2021/11/14 00:47:37;;;;;;;;;8.00;6.50;;;;;;;;5108129;27;45188;-85
2021/11/14 00:50:07;;;;;;;;;10.00;9.75;;;;;;;;5105669;27;45373;-85
2021/11/14 00:52:33;;;;;;;;;10.00;9.75;;;;;;;;5108920;27;46570;-86
2021/11/14 00:54:58;;;;;;;;;8.50;8.50;;;;;;;;5107536;27;45430;-85
2021/11/14 00:57:23;;;;;;;;;6.67;6.33;;;;;;;;5101554;27;45449;-86
2021/11/14 00:59:48;;;;;;;;;8.33;8.33;;;;;;;;5103930;27;45362;-85
2021/11/14 01:02:13;;;;;;;;;11.33;10.00;;;;;;;;5097051;27;45330;-85
2021/11/14 01:04:39;;;;;;;;;7.00;7.00;;;;;;;;5103756;27;45443;-85
2021/11/14 01:07:04;;;;;;;;;7.00;6.67;;;;;;;;5107789;27;45123;-85
2021/11/14 01:09:30;;;;;;;;;9.00;7.75;;;;;;;;5096866;27;45377;-85
2021/11/14 01:11:55;;;;;;;;;9.33;9.00;;;;;;;;5100426;27;45479;-85
2021/11/14 01:14:20;;;;;;;;;9.00;9.00;;;;;;;;5101071;27;45411;-85
2021/11/14 01:16:45;;;;;;;;;6.00;6.00;;;;;;;;5107577;27;45350;-86
2021/11/14 01:19:11;;;;;;;;;7.00;7.00;;;;;;;;5109002;27;44971;-86
2021/11/14 01:21:36;;;;;;;;;11.00;9.00;;;;;;;;5107967;27;47241;-86
2021/11/14 01:24:02;;;;;;;;;7.25;7.00;;;;;;;;5103732;27;45217;-86
2021/11/14 01:26:28;;;;;;;;;9.50;9.25;;;;;;;;5100265;27;45479;-85
2021/11/14 01:28:54;;;;;;;;;9.75;9.00;;;;;;;;5100538;27;45160;-86
2021/11/14 01:31:20;;;;;;;;;6.00;6.00;;;;;;;;5106163;27;45906;-84
2021/11/14 01:33:45;;;;;;;;;8.25;8.25;;;;;;;;5103173;27;45363;-86
2021/11/14 01:36:10;;;;;;;;;9.33;7.00;;;;;;;;5098721;27;45468;-86
2021/11/14 01:38:36;;;;;;;;;6.00;6.00;;;;;;;;5095741;27;45784;-86
2021/11/14 01:41:04;;;;;;;;;7.75;7.75;;;;;;;;5096742;27;46114;-86
2021/11/14 01:43:31;;;;;;;;;7.75;7.00;;;;;;;;5104568;27;45654;-85
2021/11/14 01:45:56;;;;;;;;;8.50;7.00;;;;;;;;5106450;27;45180;-85
2021/11/14 01:48:21;;;;;;;;;12.00;11.00;;;;;;;;5106133;27;45463;-86
2021/11/14 01:50:47;;;;;;;;;8.00;7.25;;;;;;;;5104966;27;47418;-85
2021/11/14 01:53:12;;;;;;;;;10.25;9.75;;;;;;;;5107108;27;45122;-85
2021/11/14 01:55:42;;;;;;;;;11.50;11.00;;;;;;;;5100104;27;45398;-86
2021/11/14 01:58:08;;;;;;;;;12.00;11.00;;;;;;;;5102017;27;45155;-85
2021/11/14 02:00:36;;;;;;;;;7.50;6.00;;;;;;;;5105348;27;47344;-85
2021/11/14 02:03:02;;;;;;;;;11.00;10.50;;;;;;;;5098564;27;45979;-86
2021/11/14 02:05:29;;;;;;;;;8.75;7.00;;;;;;;;5103923;27;45752;-86
2021/11/14 02:07:56;;;;;;;;;10.00;9.25;;;;;;;;5101301;27;45512;-86
2021/11/14 02:10:22;;;;;;;;;12.50;10.50;;;;;;;;5096759;27;45341;-85
2021/11/14 02:12:47;;;;;;;;;11.25;11.00;;;;;;;;5099436;27;46254;-85
2021/11/14 02:15:12;;;;;;;;;7.67;6.00;;;;;;;;5100840;27;45729;-85
2021/11/14 02:17:38;;;;;;;;;10.00;8.25;;;;;;;;5103712;27;45253;-84
2021/11/14 02:20:04;;;;;;;;;9.33;9.33;;;;;;;;5092571;27;45428;-86
2021/11/14 02:22:30;;;;;;;;;7.00;7.00;;;;;;;;5092754;27;45285;-85
2021/11/14 02:24:55;;;;;;;;;8.00;6.33;;;;;;;;5104802;27;45137;-86
2021/11/14 02:27:20;;;;;;;;;9.33;9.00;;;;;;;;5100406;27;45266;-86
2021/11/14 02:29:46;;;;;;;;;7.67;7.00;;;;;;;;5095950;27;45551;-86
2021/11/14 02:32:12;;;;;;;;;10.25;9.25;;;;;;;;5088890;27;45386;-86
2021/11/14 02:34:37;;;;;;;;;7.00;6.00;;;;;;;;5091934;27;45515;-86
2021/11/14 02:37:03;;;;;;;;;9.75;9.75;;;;;;;;5090397;27;45870;-86
2021/11/14 02:39:28;;;;;;;;;10.50;9.25;;;;;;;;5083822;27;46256;-85
2021/11/14 02:41:53;;;;;;;;;9.50;9.00;;;;;;;;5095437;27;45473;-86
2021/11/14 02:44:19;;;;;;;;;5.67;5.67;;;;;;;;5108861;27;45297;-87
2021/11/14 02:46:44;;;;;;;;;8.33;8.33;;;;;;;;5107937;27;45256;-86
2021/11/14 02:49:09;;;;;;;;;6.67;6.67;;;;;;;;5108247;27;45920;-86
2021/11/14 02:51:35;;;;;;;;;9.00;7.67;;;;;;;;5109135;27;44969;-86
2021/11/14 02:54:02;;;;;;;;;7.00;7.00;;;;;;;;5106315;27;45403;-86
2021/11/14 02:56:27;;;;;;;;;9.00;9.00;;;;;;;;5098944;27;45555;-86
2021/11/14 02:58:53;;;;;;;;;6.00;6.00;;;;;;;;5097440;27;46195;-85
2021/11/14 03:01:20;;;;;;;;;7.50;7.00;;;;;;;;5098736;27;45584;-85
2021/11/14 03:03:47;;;;;;;;;9.50;8.50;;;;;;;;5105354;27;45076;-86
2021/11/14 03:06:12;;;;;;;;;6.25;6.25;;;;;;;;5104789;27;45158;-86
2021/11/14 03:08:38;;;;;;;;;9.00;8.00;;;;;;;;5100459;27;45298;-85
2021/11/14 03:11:03;;;;;;;;;6.00;5.25;;;;;;;;5094120;27;45362;-85
2021/11/14 03:13:28;;;;;;;;;7.50;7.50;;;;;;;;5093428;27;45491;-85
2021/11/14 03:15:56;;;;;;;;;9.33;9.00;;;;;;;;5100228;27;45582;-85
2021/11/14 03:18:22;;;;;;;;;5.50;4.25;;;;;;;;5106157;27;45347;-86
2021/11/14 03:20:49;;;;;;;;;6.75;6.00;;;;;;;;5099232;27;45648;-86
2021/11/14 03:23:15;;;;;;;;;7.25;6.75;;;;;;;;5097823;27;45567;-85
2021/11/14 03:25:41;;;;;;;;;7.00;7.00;;;;;;;;5098175;27;45955;-85
2021/11/14 03:28:06;;;;;;;;;6.75;6.00;;;;;;;;5102140;27;47822;-86
2021/11/14 03:30:33;;;;;;;;;7.00;7.00;;;;;;;;5105322;27;45270;-86
2021/11/14 03:33:01;;;;;;;;;7.25;7.00;;;;;;;;5096854;27;45286;-87
2021/11/14 03:35:36;;;;;;;;;6.75;6.00;;;;;;;;5103224;27;45295;-86
2021/11/14 03:38:01;;;;;;;;;9.00;7.75;;;;;;;;5092241;27;46747;-87
2021/11/14 03:40:26;;;;;;;;;6.67;5.67;;;;;;;;5095779;27;45630;-86
2021/11/14 03:42:51;;;;;;;;;5.67;5.67;;;;;;;;5097223;27;45509;-86
2021/11/14 03:45:17;;;;;;;;;5.67;5.67;;;;;;;;5098933;27;45588;-86
2021/11/14 03:47:43;;;;;;;;;5.00;5.00;;;;;;;;5091450;27;47893;-85
2021/11/14 03:50:09;;;;;;;;;9.00;9.00;;;;;;;;5090909;27;45616;-86
2021/11/14 03:52:35;;;;;;;;;7.00;6.75;;;;;;;;5090519;27;45562;-85
2021/11/14 03:55:00;;;;;;;;;6.50;6.00;;;;;;;;5095603;27;45613;-86
2021/11/14 03:57:25;;;;;;;;;7.00;6.00;;;;;;;;5091152;27;45758;-86
2021/11/14 03:59:51;;;;;;;;;9.33;9.00;;;;;;;;5094288;27;45758;-85
2021/11/14 04:02:16;;;;;;;;;5.00;4.67;;;;;;;;5095968;27;45354;-86
2021/11/14 04:04:41;;;;;;;;;4.75;4.25;;;;;;;;5100365;27;45370;-85
2021/11/14 04:07:07;;;;;;;;;7.00;6.00;;;;;;;;5102204;27;45951;-86
2021/11/14 04:09:32;;;;;;;;;5.00;4.33;;;;;;;;5095225;27;45743;-86
2021/11/14 04:11:57;;;;;;;;;9.00;6.00;;;;;;;;5098714;27;45469;-85
2021/11/14 04:14:22;;;;;;;;;6.00;6.00;;;;;;;;5106824;27;45300;-85
2021/11/14 04:16:47;;;;;;;;;5.33;5.33;;;;;;;;5100821;27;47307;-85
2021/11/14 04:19:13;;;;;;;;;7.00;6.33;;;;;;;;5099388;27;45581;-85
2021/11/14 04:21:39;;;;;;;;;6.00;6.00;;;;;;;;5109342;27;45137;-86
2021/11/14 04:24:04;;;;;;;;;6.25;5.25;;;;;;;;5103155;27;45666;-85
2021/11/14 04:26:29;;;;;;;;;10.00;9.00;;;;;;;;5103626;27;47025;-85
2021/11/14 04:28:55;;;;;;;;;6.33;6.00;;;;;;;;5105955;27;45333;-85
2021/11/14 04:31:21;;;;;;;;;10.00;9.00;;;;;;;;5098365;27;45110;-85
2021/11/14 04:33:46;;;;;;;;;11.75;8.75;;;;;;;;5099481;27;45385;-85
2021/11/14 04:36:11;;;;;;;;;9.67;7.67;;;;;;;;5107412;27;47170;-85
2021/11/14 04:38:36;;;;;;;;;10.33;7.00;;;;;;;;5105872;27;45348;-86
2021/11/14 04:41:02;;;;;;;;;8.67;6.67;;;;;;;;5105347;27;45392;-85
2021/11/14 04:43:28;;;;;;;;;8.00;6.00;;;;;;;;5108216;27;45586;-86
2021/11/14 04:45:53;;;;;;;;;7.75;7.75;;;;;;;;5104287;27;47434;-86
2021/11/14 04:48:19;;;;;;;;;9.00;7.00;;;;;;;;5091471;27;45361;-86
2021/11/14 04:50:45;;;;;;;;;8.50;6.75;;;;;;;;5090680;27;46055;-85
2021/11/14 04:53:11;;;;;;;;;12.00;10.00;;;;;;;;5090276;27;45427;-86
2021/11/14 04:55:37;;;;;;;;;9.00;9.00;;;;;;;;5090704;27;46015;-86
2021/11/14 04:58:03;;;;;;;;;11.00;10.00;;;;;;;;5098761;27;45441;-86
2021/11/14 05:00:31;;;;;;;;;9.00;9.00;;;;;;;;5101420;27;45524;-85
2021/11/14 05:02:56;;;;;;;;;11.00;9.50;;;;;;;;5101001;27;45694;-86
2021/11/14 05:05:22;;;;;;;;;9.75;7.00;;;;;;;;5107756;27;45593;-85
2021/11/14 05:07:47;;;;;;;;;10.00;10.00;;;;;;;;5097336;27;45344;-86
2021/11/14 05:10:12;;;;;;;;;11.00;10.00;;;;;;;;5100949;27;45484;-85
2021/11/14 05:12:38;;;;;;;;;9.50;9.25;;;;;;;;5104388;27;45124;-85
2021/11/14 05:15:04;;;;;;;;;11.00;10.00;;;;;;;;5106204;27;46107;-85
2021/11/14 05:17:30;;;;;;;;;9.00;9.00;;;;;;;;5088895;27;45162;-86
2021/11/14 05:19:55;;;;;;;;;10.00;10.00;;;;;;;;5108087;27;45301;-85
2021/11/14 05:22:20;;;;;;;;;12.25;10.25;;;;;;;;5093709;27;45609;-85
2021/11/14 05:24:45;;;;;;;;;11.33;11.33;;;;;;;;5107616;27;45215;-85
2021/11/14 05:27:11;;;;;;;;;10.67;9.00;;;;;;;;5104995;27;44988;-85
2021/11/14 05:29:36;;;;;;;;;9.67;9.33;;;;;;;;5107091;27;45230;-85
2021/11/14 05:32:02;;;;;;;;;11.00;11.00;;;;;;;;5098310;27;45299;-86
2021/11/14 05:34:27;;;;;;;;;10.75;10.25;;;;;;;;5108826;27;45400;-86
2021/11/14 05:36:52;;;;;;;;;10.33;10.00;;;;;;;;5118192;27;45061;-85
2021/11/14 05:39:17;;;;;;;;;9.33;9.00;;;;;;;;5122351;27;44812;-86
2021/11/14 05:41:44;;;;;;;;;10.00;10.00;;;;;;;;5121659;27;45260;-86
2021/11/14 05:44:09;;;;;;;;;11.00;7.50;;;;;;;;5123226;27;45330;-85
2021/11/14 05:46:35;;;;;;;;;10.50;10.00;;;;;;;;5122084;27;45181;-86
2021/11/14 05:49:00;;;;;;;;;11.50;10.50;;;;;;;;5122180;27;44873;-85
2021/11/14 05:51:25;;;;;;;;;10.00;9.75;;;;;;;;5121999;27;45078;-85
2021/11/14 05:53:51;;;;;;;;;9.67;9.00;;;;;;;;5117515;27;45253;-85
2021/11/14 05:56:16;;;;;;;;;11.67;11.33;;;;;;;;5099266;27;44993;-86
2021/11/14 05:58:48;;;;;;;;;14.67;13.67;;;;;;;;5111010;27;44924;-86
2021/11/14 06:01:19;;;;;;;;;11.00;9.50;;;;;;;;5110051;27;45245;-85
2021/11/14 06:06:10;;;;;;;;;10.67;10.33;;;;;;;;5109632;27;45117;-85
2021/11/14 06:08:37;;;;;;;;;8.25;8.25;;;;;;;;5109494;27;44997;-86
2021/11/14 06:11:02;;;;;;;;;10.75;10.00;;;;;;;;5109675;27;45125;-85
2021/11/14 06:13:28;;;;;;;;;11.00;10.00;;;;;;;;5104848;27;48613;-86
2021/11/14 06:15:53;;;;;;;;;10.25;9.50;;;;;;;;5110024;27;45422;-84
2021/11/14 06:18:19;;;;;;;;;10.50;9.50;;;;;;;;5108623;27;45764;-86
2021/11/14 06:20:44;;;;;;;;;11.25;11.25;;;;;;;;5111661;27;45107;-85
2021/11/14 06:23:10;;;;;;;;;11.00;11.00;;;;;;;;5110426;27;47342;-85
2021/11/14 06:25:35;;;;;;;;;12.50;11.50;;;;;;;;5111053;27;45606;-85
2021/11/14 06:28:01;;;;;;;;;11.67;10.33;;;;;;;;5112216;27;45287;-85
2021/11/14 06:30:26;;;;;;;;;11.75;11.50;;;;;;;;5112020;27;45350;-86
2021/11/14 06:32:52;;;;;;;;;10.75;9.25;;;;;;;;5109915;27;47325;-85
2021/11/14 06:35:17;;;;;;;;;11.00;9.50;;;;;;;;5110153;27;45204;-84
2021/11/14 06:37:42;;;;;;;;;9.75;9.75;;;;;;;;5106801;27;45270;-85
2021/11/14 06:40:08;;;;;;;;;9.25;9.25;;;;;;;;5110073;27;45140;-86
2021/11/14 06:42:34;;;;;;;;;10.00;8.75;;;;;;;;5108294;27;47643;-85
2021/11/14 06:44:59;;;;;;;;;7.75;7.50;;;;;;;;5087914;28;45316;-85
2021/11/14 06:47:24;;;;;;;;;9.00;9.00;;;;;;;;5101094;27;45511;-86
2021/11/14 06:49:52;;;;;;;;;7.50;7.50;;;;;;;;5111025;27;45387;-85
2021/11/14 06:52:17;;;;;;;;;6.00;6.00;;;;;;;;5105753;27;47196;-85
2021/11/14 06:54:42;;;;;;;;;11.00;10.00;;;;;;;;5111881;27;45051;-85
2021/11/14 06:57:08;;;;;;;;;6.00;6.00;;;;;;;;5112182;27;45358;-85
2021/11/14 06:59:34;;;;;;;;;7.00;7.00;;;;;;;;5106089;27;45048;-85
2021/11/14 07:01:59;;;;;;;;;13.25;11.25;;;;;;;;5105352;27;45428;-85
2021/11/14 07:04:24;;;;;;;;;9.00;8.50;;;;;;;;5109666;27;45108;-85
2021/11/14 07:06:49;;;;;;;;;11.33;9.67;;;;;;;;5111214;27;45212;-85
2021/11/14 07:09:15;;;;;;;;;13.00;11.00;;;;;;;;5108338;27;45268;-85
2021/11/14 07:11:40;;;;;;;;;12.00;11.00;;;;;;;;5108179;27;45807;-85
2021/11/14 07:14:05;;;;;;;;;11.00;10.00;;;;;;;;5108903;27;45440;-84
2021/11/14 07:16:32;;;;;;;;;9.50;9.00;;;;;;;;5109999;27;45653;-85
2021/11/14 07:18:57;;;;;;;;;10.75;10.75;;;;;;;;5109723;27;45455;-85
2021/11/14 07:21:23;;;;;;;;;10.50;10.00;;;;;;;;5104623;27;47220;-85
2021/11/14 07:23:49;;;;;;;;;11.75;11.25;;;;;;;;5110725;27;45143;-84
2021/11/14 07:26:14;;;;;;;;;11.25;10.25;;;;;;;;5109641;27;45249;-85
2021/11/14 07:28:39;;;;;;;;;10.00;10.00;;;;;;;;5110865;27;45125;-85
2021/11/14 07:31:05;;;;;;;;;11.75;11.25;;;;;;;;5108904;27;45772;-85
2021/11/14 07:33:30;;;;;;;;;10.75;8.25;;;;;;;;5108209;27;45140;-85
2021/11/14 07:35:55;;;;;;;;;11.00;10.00;;;;;;;;5108611;27;45161;-85
2021/11/14 07:38:20;;;;;;;;;11.00;11.00;;;;;;;;5108792;27;45836;-86
2021/11/14 07:40:45;;;;;;;;;11.50;11.50;;;;;;;;5108494;27;47515;-85
2021/11/14 07:43:11;;;;;;;;;10.00;10.00;;;;;;;;5108249;27;45154;-85
2021/11/14 07:45:36;;;;;;;;;9.75;8.25;;;;;;;;5111454;27;45134;-85
2021/11/14 07:48:03;;;;;;;;;10.00;9.67;;;;;;;;5108966;27;45448;-85
2021/11/14 07:50:29;;;;;;;;;10.75;10.75;;;;;;;;5108432;27;47621;-85
2021/11/14 07:52:55;;;;;;;;;9.75;9.75;;;;;;;;5108685;27;45592;-85
2021/11/14 07:55:20;;;;;;;;;11.75;11.00;;;;;;;;5108667;27;45150;-85
2021/11/14 07:57:46;;;;;;;;;11.75;11.00;;;;;;;;5108704;27;45198;-85
2021/11/14 08:00:16;;;;;;;;;13.25;12.00;;;;;;;;5110355;27;45786;-85
2021/11/14 08:02:41;;;;;;;;;10.25;10.25;;;;;;;;5108175;27;45610;-85
2021/11/14 08:05:06;;;;;;;;;12.00;11.00;;;;;;;;5108400;27;45410;-85
2021/11/14 08:07:32;;;;;;;;;11.50;11.25;;;;;;;;5108416;27;45261;-85
2021/11/14 08:09:57;;;;;;;;;10.33;10.33;;;;;;;;5109015;27;47188;-85
2021/11/14 08:12:22;;;;;;;;;11.33;11.33;;;;;;;;5107900;27;45166;-85
2021/11/14 08:14:49;;;;;;;;;12.00;11.33;;;;;;;;5109493;27;45290;-86
2021/11/14 08:17:14;;;;;;;;;11.25;11.00;;;;;;;;5110626;27;45381;-86
2021/11/14 08:19:39;;;;;;;;;10.33;10.33;;;;;;;;5108034;27;45039;-85
2021/11/14 08:22:04;;;;;;;;;11.00;10.00;;;;;;;;5108136;27;45307;-86
2021/11/14 08:24:29;;;;;;;;;12.00;11.67;;;;;;;;5108350;27;45341;-85
2021/11/14 08:26:55;;;;;;;;;10.00;9.00;;;;;;;;5107589;27;45212;-85
2021/11/14 08:29:21;;;;;;;;;12.25;11.75;;;;;;;;5107997;27;47129;-85
2021/11/14 08:31:46;;;;;;;;;12.00;10.00;;;;;;;;5104315;27;45643;-85
2021/11/14 08:34:11;;;;;;;;;9.00;9.00;;;;;;;;5107362;27;45423;-85
2021/11/14 08:36:39;;;;;;;;;10.33;10.33;;;;;;;;5107323;27;45015;-85
2021/11/14 08:39:04;;;;;;;;;8.25;7.75;;;;;;;;5105788;27;45435;-86
2021/11/14 08:41:29;;;;;;;;;10.33;10.00;;;;;;;;5103977;27;45887;-85
2021/11/14 08:43:55;;;;;;;;;7.75;7.75;;;;;;;;5103746;27;45151;-84
2021/11/14 08:46:20;;;;;;;;;9.00;8.25;;;;;;;;5106820;27;45215;-85
2021/11/14 08:48:45;;;;;;;;;11.75;10.75;;;;;;;;5108650;27;46222;-85
2021/11/14 08:51:11;;;;;;;;;13.00;13.00;;;;;;;;5108175;27;45048;-85
2021/11/14 08:53:37;;;;;;;;;12.00;11.50;;;;;;;;5107133;27;45170;-84
2021/11/14 08:56:02;;;;;;;;;10.50;9.00;;;;;;;;5108463;27;45357;-85
2021/11/14 08:58:31;;;;;;;;;10.25;8.75;;;;;;;;5109070;27;45618;-84
2021/11/14 09:00:57;;;;;;;;;10.00;9.75;;;;;;;;5103773;27;45323;-83
2021/11/14 09:03:22;;;;;;;;;10.50;10.25;;;;;;;;5107625;27;45138;-84
2021/11/14 09:05:47;;;;;;;;;7.67;7.00;;;;;;;;5107788;27;45187;-85
2021/11/14 09:08:12;;;;;;;;;13.00;13.00;;;;;;;;5106177;27;47191;-85
2021/11/14 09:10:40;;;;;;;;;8.33;7.33;;;;;;;;5106782;27;44923;-87
2021/11/14 09:13:06;;;;;;;;;9.75;9.75;;;;;;;;5103644;27;45405;-85
2021/11/14 09:15:32;;;;;;;;;9.75;9.75;;;;;;;;5104181;27;45161;-85
2021/11/14 09:17:58;;;;;;;;;10.00;9.50;;;;;;;;5091781;27;47315;-85
2021/11/14 09:20:23;;;;;;;;;7.00;7.00;;;;;;;;5089117;27;45463;-85
2021/11/14 09:22:49;;;;;;;;;10.75;8.75;;;;;;;;5089098;27;45394;-86
2021/11/14 09:25:14;;;;;;;;;10.00;8.00;;;;;;;;5089164;27;45386;-85
2021/11/14 09:27:40;;;;;;;;;6.75;6.00;;;;;;;;5088493;27;48089;-85
2021/11/14 09:30:05;;;;;;;;;9.00;9.00;;;;;;;;5089841;27;45361;-85
2021/11/14 09:32:31;;;;;;;;;9.75;7.00;;;;;;;;5089094;27;45374;-86
2021/11/14 09:34:56;;;;;;;;;7.75;6.75;;;;;;;;5089050;27;45559;-85
2021/11/14 09:37:22;;;;;;;;;9.75;8.75;;;;;;;;5089147;27;48115;-85
2021/11/14 09:39:47;;;;;;;;;7.00;7.00;;;;;;;;5091334;27;45388;-86
2021/11/14 09:42:13;;;;;;;;;10.33;9.33;;;;;;;;5091487;27;45439;-87
2021/11/14 09:44:38;;;;;;;;;7.25;6.75;;;;;;;;5097336;27;45740;-85
2021/11/14 09:47:03;;;;;;;;;7.67;7.67;;;;;;;;5097215;27;47297;-86
2021/11/14 09:49:30;;;;;;;;;7.67;7.33;;;;;;;;5095083;27;45393;-86
2021/11/14 09:51:56;;;;;;;;;8.25;7.75;;;;;;;;5096307;27;45391;-86
2021/11/14 09:54:23;;;;;;;;;8.25;8.25;;;;;;;;5096614;27;45418;-86
2021/11/14 09:56:48;;;;;;;;;7.50;6.50;;;;;;;;5099145;27;47553;-85
2021/11/14 09:59:14;;;;;;;;;9.25;7.75;;;;;;;;5100626;27;45298;-86
2021/11/14 10:01:39;;;;;;;;;6.50;6.00;;;;;;;;5096334;27;45516;-85
2021/11/14 10:04:07;;;;;;;;;8.25;7.25;;;;;;;;5096536;27;45382;-85
2021/11/14 10:06:33;;;;;;;;;8.50;8.00;;;;;;;;5100630;27;45510;-86
2021/11/14 10:08:58;;;;;;;;;5.00;4.00;;;;;;;;5094579;27;45687;-86
2021/11/14 10:11:32;;;;;;;;;4.00;4.00;;;;;;;;5091922;27;45476;-86
2021/11/14 10:13:58;;;;;;;;;6.50;5.75;;;;;;;;5091788;27;45316;-86
2021/11/14 10:16:25;;;;;;;;;4.00;4.00;;;;;;;;5093526;27;46516;-86
2021/11/14 10:18:54;;;;;;;;;9.00;8.00;;;;;;;;5091093;27;46107;-86
2021/11/14 10:21:20;;;;;;;;;5.00;5.00;;;;;;;;5091587;27;45503;-86
2021/11/14 10:23:45;;;;;;;;;8.00;7.00;;;;;;;;5093462;27;45326;-85
2021/11/14 10:26:11;;;;;;;;;6.33;6.00;;;;;;;;5092608;27;45445;-86
2021/11/14 10:28:41;;;;;;;;;5.75;5.75;;;;;;;;5092162;27;45302;-86
2021/11/14 10:31:07;;;;;;;;;6.50;6.00;;;;;;;;5093316;27;45482;-86
2021/11/14 10:33:32;;;;;;;;;8.00;7.00;;;;;;;;5091006;27;45487;-86
2021/11/14 10:35:58;;;;;;;;;11.50;9.50;;;;;;;;5091168;27;47827;-86
2021/11/14 10:38:25;;;;;;;;;21.00;18.50;;;;;;;;5092957;27;45454;-86
2021/11/14 10:40:53;;;;;;;;;21.00;20.25;;;;;;;;5092868;27;45388;-86
2021/11/14 10:43:21;;;;;;;;;15.25;11.75;;;;;;;;5091405;27;45661;-85
2021/11/14 10:45:46;;;;;;;;;17.00;14.50;;;;;;;;5093104;27;46498;-86
2021/11/14 10:48:13;;;;;;;;;80.00;66.50;;;;;;;;5090663;27;45790;-86
2021/11/14 10:50:40;;;;;;;;;22.00;19.00;;;;;;;;5091669;27;45416;-85
2021/11/14 10:53:06;;;;;;;;;13.25;12.00;;;;;;;;5091254;27;45782;-85
2021/11/14 10:55:37;;;;;;;;;72.75;57.50;;;;;;;;5091715;27;45634;-86
2021/11/14 10:58:03;;;;;;;;;53.00;43.25;;;;;;;;5090982;27;46057;-86
2021/11/14 11:00:29;;;;;;;;;12.50;11.50;;;;;;;;5092608;27;45472;-86
2021/11/14 11:02:55;;;;;;;;;12.00;10.25;;;;;;;;5090396;27;45453;-87
2021/11/14 11:05:21;;;;;;;;;39.75;34.75;;;;;;;;5092290;27;45636;-86
2021/11/14 11:07:56;;;;;;;;;38.75;34.25;;;;;;;;5092756;27;45362;-85
2021/11/14 11:10:23;;;;;;;;;46.50;39.50;;;;;;;;5092365;27;45673;-86
2021/11/14 11:12:48;;;;;;;;;15.75;13.00;;;;;;;;5092969;27;45367;-86
2021/11/14 11:15:13;;;;;;;;;26.00;24.00;;;;;;;;5091877;27;46935;-86
2021/11/14 11:17:52;;;;;;;;;22.00;21.33;;;;;;;;5090470;27;45696;-86
2021/11/14 11:20:19;;;;;;;;;17.25;17.00;;;;;;;;5092004;27;45508;-86
2021/11/14 11:22:58;;;;;;;;;21.50;19.00;;;;;;;;5091213;27;45498;-86
2021/11/14 11:25:44;;;;;;;;;23.50;22.25;;;;;;;;5091196;27;45563;-85
2021/11/14 11:28:16;;;;;;;;;24.25;23.50;;;;;;;;5091589;27;45527;-85
2021/11/14 11:30:43;;;;;;;;;71.00;56.25;;;;;;;;5092444;27;45392;-85
2021/11/14 11:33:08;;;;;;;;;28.50;24.50;;;;;;;;5089798;27;45500;-86
2021/11/14 11:35:34;;;;;;;;;48.75;42.00;;;;;;;;5090311;27;48269;-86
2021/11/14 11:37:59;;;;;;;;;60.50;48.50;;;;;;;;5091829;27;45442;-86
2021/11/14 11:40:25;;;;;;;;;43.75;36.00;;;;;;;;5091275;27;45471;-86
2021/11/14 11:42:51;;;;;;;;;48.75;41.50;;;;;;;;5091890;27;45562;-86
2021/11/14 11:45:31;;;;;;;;;24.00;23.50;;;;;;;;5091005;27;45591;-86
2021/11/14 11:47:58;;;;;;;;;35.00;32.50;;;;;;;;5089328;27;45836;-84
2021/11/14 11:50:26;;;;;;;;;19.25;17.25;;;;;;;;5091297;27;45591;-86
2021/11/14 11:52:51;;;;;;;;;27.00;24.25;;;;;;;;5090499;27;45517;-84
2021/11/14 11:55:17;;;;;;;;;16.25;15.50;;;;;;;;5091136;27;46400;-85
2021/11/14 11:57:43;;;;;;;;;30.50;27.00;;;;;;;;5091733;27;45853;-84
2021/11/14 12:00:09;;;;;;;;;21.67;19.00;;;;;;;;5091239;27;45580;-85
2021/11/14 12:02:34;;;;;;;;;26.00;24.50;;;;;;;;5089260;27;45618;-84
2021/11/14 12:05:06;;;;;;;;;15.00;15.00;;;;;;;;5090803;27;46072;-84
2021/11/14 12:07:34;;;;;;;;;20.75;19.25;;;;;;;;5088870;27;46181;-84
2021/11/14 12:10:00;;;;;;;;;17.25;16.75;;;;;;;;5090356;27;45470;-84
2021/11/14 12:12:29;;;;;;;;;27.67;25.67;;;;;;;;5089988;27;45625;-84
2021/11/14 12:15:00;;;;;;;;;18.25;18.00;;;;;;;;5089175;27;48247;-85
2021/11/14 12:17:29;;;;;;;;;20.25;18.00;;;;;;;;5088869;27;45430;-85
2021/11/14 12:20:03;;;;;;;;;28.25;27.75;;;;;;;;5089067;27;45398;-85
2021/11/14 12:22:37;;;;;;;;;33.75;28.50;;;;;;;;5091510;27;45695;-85
2021/11/14 12:25:03;;;;;;;;;41.00;36.00;;;;;;;;5090707;27;46322;-83
2021/11/14 12:27:31;;;;;;;;;34.75;33.00;;;;;;;;5103009;27;45795;-86
2021/11/14 12:29:58;;;;;;;;;27.75;25.50;;;;;;;;5101975;27;45545;-85
2021/11/14 12:32:30;;;;;;;;;20.50;20.00;;;;;;;;5091400;27;45604;-85
2021/11/14 12:35:04;;;;;;;;;22.50;21.00;;;;;;;;5089198;27;47311;-85
2021/11/14 12:37:30;;;;;;;;;28.50;26.00;;;;;;;;5089634;27;45837;-84
2021/11/14 12:40:08;;;;;;;;;33.75;31.50;;;;;;;;5090157;27;45422;-84
2021/11/14 12:42:34;;;;;;;;;29.50;28.25;;;;;;;;5091179;27;45603;-86
2021/11/14 12:44:59;;;;;;;;;28.25;28.25;;;;;;;;5090478;27;45622;-85
2021/11/14 12:47:26;;;;;;;;;54.00;45.00;;;;;;;;5090752;27;45457;-86
2021/11/14 12:50:02;;;;;;;;;25.50;25.50;;;;;;;;5090160;27;45443;-86
2021/11/14 12:52:29;;;;;;;;;20.50;20.25;;;;;;;;5090905;27;45511;-86
2021/11/14 12:54:55;;;;;;;;;18.00;16.50;;;;;;;;5092938;27;47335;-86
2021/11/14 12:57:21;;;;;;;;;17.00;17.00;;;;;;;;5092647;27;45964;-86
2021/11/14 12:59:48;;;;;;;;;32.33;28.33;;;;;;;;5095787;27;45456;-86
2021/11/14 13:02:21;;;;;;;;;21.50;20.75;;;;;;;;5093906;27;45553;-85
2021/11/14 13:04:47;;;;;;;;;18.25;16.00;;;;;;;;5098414;27;47512;-84
2021/11/14 13:07:30;;;;;;;;;17.00;16.00;;;;;;;;5098327;27;45284;-84
2021/11/14 13:09:57;;;;;;;;;16.00;15.50;;;;;;;;5096117;27;45501;-86
2021/11/14 13:12:23;;;;;;;;;18.00;17.00;;;;;;;;5099635;27;45099;-87
2021/11/14 13:14:52;;;;;;;;;23.00;20.25;;;;;;;;5108561;27;45507;-85
2021/11/14 13:17:17;;;;;;;;;35.00;30.50;;;;;;;;5107741;27;45514;-87
2021/11/14 13:19:43;;;;;;;;;33.75;32.25;;;;;;;;5107492;27;45043;-86
2021/11/14 13:22:09;;;;;;;;;26.00;25.00;;;;;;;;5107659;27;45138;-86
2021/11/14 13:24:35;;;;;;;;;17.00;16.00;;;;;;;;5093077;27;45539;-86
2021/11/14 13:27:05;;;;;;;;;18.75;18.25;;;;;;;;5089397;27;45658;-85
2021/11/14 13:29:35;;;;;;;;;37.00;34.50;;;;;;;;5090613;27;44823;-85
2021/11/14 13:32:03;;;;;;;;;34.50;33.00;;;;;;;;5089993;27;45490;-85
2021/11/14 13:34:29;;;;;;;;;26.75;24.00;;;;;;;;5089938;27;46409;-85
2021/11/14 13:37:02;;;;;;;;;22.50;19.75;;;;;;;;5090886;27;45511;-85
2021/11/14 13:39:28;;;;;;;;;18.00;17.75;;;;;;;;5090373;27;45436;-85
2021/11/14 13:41:54;;;;;;;;;16.00;15.67;;;;;;;;5090318;27;45511;-86
2021/11/14 13:44:27;;;;;;;;;23.25;20.50;;;;;;;;5088058;27;47739;-85
2021/11/14 13:46:58;;;;;;;;;21.50;19.25;;;;;;;;5090049;27;45532;-85
2021/11/14 13:49:26;;;;;;;;;32.25;28.75;;;;;;;;5087760;27;45826;-85
2021/11/14 13:51:51;;;;;;;;;27.50;25.75;;;;;;;;5090177;27;45525;-85
2021/11/14 13:54:16;;;;;;;;;16.67;16.00;;;;;;;;5089767;27;46401;-85
2021/11/14 13:56:42;;;;;;;;;31.00;28.33;;;;;;;;5088780;27;45755;-85
2021/11/14 13:59:07;;;;;;;;;18.00;16.50;;;;;;;;5088230;27;46095;-86
2021/11/14 14:01:33;;;;;;;;;17.33;17.33;;;;;;;;5088286;27;45353;-85
2021/11/14 14:04:00;;;;;;;;;19.33;18.33;;;;;;;;5089291;27;46049;-85
2021/11/14 14:06:29;;;;;;;;;14.50;13.75;;;;;;;;5088295;27;45882;-85
2021/11/14 14:08:54;;;;;;;;;22.25;19.25;;;;;;;;5088126;27;45509;-84
2021/11/14 14:11:20;;;;;;;;;18.50;16.25;;;;;;;;5089952;27;45626;-85
2021/11/14 14:13:52;;;;;;;;;76.75;61.75;;;;;;;;5089991;27;46645;-85
2021/11/14 14:16:18;;;;;;;;;25.00;24.25;;;;;;;;5089324;27;45847;-85
2021/11/14 14:18:43;;;;;;;;;38.00;34.33;;;;;;;;5088449;27;45549;-85
2021/11/14 14:21:08;;;;;;;;;20.00;19.25;;;;;;;;5087967;27;45604;-85
2021/11/14 14:23:35;;;;;;;;;28.33;27.33;;;;;;;;5089795;27;45668;-85
2021/11/14 14:26:00;;;;;;;;;21.25;19.25;;;;;;;;5089440;27;45851;-85